e-Mail: Password: Lost your password? Click here. - Register a new user

c h a v e z j u a r e z . c o m

Weather - Tiempo - Wetter - Temps

METAR DATA MMMX (Mexico City)

Station name not available
Aug 21, 2019 - 09:49 PM EDT / 2019.08.22 0149 UTC
Wind: from the SSE (150 degrees) at 14 MPH (12 KT):0
Visibility: 10 mile(s):0
Sky conditions: mostly cloudy
Weather: Cumulonimbus clouds, lightning observed
Temperature: 68 F (20 C)
Dew Point: 48 F (9 C)
Relative Humidity: 49%
Pressure (altimeter): 30.3 in. Hg (1026 hPa)
ob: MMMX 220149Z 15012KT 10SM SCT020CB BKN080 20/09 A3030 NOSIG RMK 8/360 CI OCNL LTGICC WNW
cycle: 2

Mexico City

St. Prex




Current weather alarms for Switzerland


www.wetteralarm.ch